Cedar Ridge, Missouri
Current Conditions -  °F | °C
As of 11:35 PM on Wednesday 17 Dec 2014 (Local Time) from KH21 Reporting Station
Light Snow Light Snow  
Wind Chill: 32°   Ceiling: 500
Heat Index: 32°   Visibility: 2mi
Dew Point: 32°   Wind: 0mph
Humidity: 100%   Direction: NA
Pressure: 30.24"   Gusts: NA
Location:  37.5724°N, 92.9325°W
Report Text: KH21 180535Z AUTO 00000KT 2SM -SN BKN005 OVC013 00/00 A3024 RMK AO2 VIS 1 1/2V2
Loading
Personal Weather Stations






























Interactive Weather Map New forecast layout! Learn more

10-Day Weather Forecast

Advertisements
Track Severe Weather on mobile